Terminal Aerodrome Forecast
Issued by NWS Duluth, MN

Home | Current Version | Previous Version | Text Only | Print | Product List | Glossary On
Versions: 1 2 3 4 5 6 7 8 9 10 11 12 13 14 15 16 17 18 19 20 21 22 23 24 25 26 27 28 29 30 31 32
934
FTUS43 KDLH 091641 AAC
TAFDLH
TAF AMD
KDLH 091641Z 0917/1012 33010KT P6SM VCSH BKN015
      TEMPO 0917/0920 3SM -SHSN
     FM092200 28007KT P6SM OVC100
     FM100200 25006KT P6SM OVC100
     FM100900 31005KT P6SM SCT025 BKN100=

USA.gov is the U.S. government's official web portal to all federal, state and local government web resources and services.